Time;durP1;ratioP1;P1;durP2;ratioP2;P2;SDS_P1;SDS_P2;PMS_P1;PMS_P2;Temp;Humidity;BMP_temperature;BMP_pressure;BME280_temperature;BME280_humidity;BME280_pressure;Samples;Min_cycle;Max_cycle;Signal;HPM_P1;HPM_P2
2022/11/24 00:01:17;;;;;;;6.30;4.10;;;2.40;99.90;;;;;;5094685;28;20460;-47
2022/11/24 00:03:45;;;;;;;5.50;4.20;;;2.30;99.90;;;;;;5094390;28;20562;-47
2022/11/24 00:06:14;;;;;;;4.23;3.50;;;2.40;99.90;;;;;;5094361;28;20936;-47
2022/11/24 00:08:45;;;;;;;3.30;2.63;;;2.20;99.90;;;;;;5094225;28;20673;-47
2022/11/24 00:11:14;;;;;;;3.73;3.10;;;2.20;99.90;;;;;;5094415;28;20562;-47
2022/11/24 00:13:41;;;;;;;4.07;3.40;;;2.20;99.90;;;;;;5094463;28;20543;-48
2022/11/24 00:16:10;;;;;;;3.87;3.47;;;2.30;99.90;;;;;;5094580;28;20521;-47
2022/11/24 00:18:38;;;;;;;4.07;3.30;;;2.30;99.90;;;;;;5094395;28;20523;-49
2022/11/24 00:21:05;;;;;;;5.27;3.60;;;2.20;99.90;;;;;;5093625;28;20506;-47
2022/11/24 00:23:31;;;;;;;5.03;3.70;;;2.30;99.90;;;;;;5093785;28;20541;-49
2022/11/24 00:26:05;;;;;;;4.47;3.50;;;2.30;99.90;;;;;;5094146;28;20440;-47
2022/11/24 00:28:33;;;;;;;3.40;2.93;;;2.20;99.90;;;;;;5094105;28;20482;-48
2022/11/24 00:31:00;;;;;;;5.20;3.97;;;2.10;99.90;;;;;;5093616;28;20475;-49
2022/11/24 00:33:27;;;;;;;7.17;4.93;;;2.30;99.90;;;;;;5093783;28;20852;-47
2022/11/24 00:35:55;;;;;;;4.83;4.33;;;2.40;99.90;;;;;;5094041;28;20526;-47
2022/11/24 00:38:22;;;;;;;5.60;3.83;;;2.00;99.90;;;;;;5093806;28;20459;-50
2022/11/24 00:40:49;;;;;;;4.27;3.43;;;2.10;99.90;;;;;;5093749;28;21075;-47
2022/11/24 00:43:17;;;;;;;6.03;3.37;;;2.20;99.90;;;;;;5093365;28;20435;-47
2022/11/24 00:45:44;;;;;;;4.97;4.43;;;2.20;99.90;;;;;;5093571;28;20924;-48
2022/11/24 00:48:11;;;;;;;4.30;3.10;;;2.20;99.90;;;;;;5093598;28;20915;-48
2022/11/24 00:50:38;;;;;;;3.60;3.23;;;2.00;99.90;;;;;;5093827;28;20546;-48
2022/11/24 00:53:05;;;;;;;3.50;3.23;;;2.00;99.90;;;;;;5093425;28;20446;-47
2022/11/24 00:55:32;;;;;;;3.07;2.77;;;2.10;99.90;;;;;;5093428;28;21020;-47
2022/11/24 00:57:59;;;;;;;2.87;2.57;;;2.10;99.90;;;;;;5093516;28;20443;-48
2022/11/24 01:00:27;;;;;;;3.43;2.30;;;2.20;99.90;;;;;;5093209;28;20462;-47
2022/11/24 01:02:54;;;;;;;2.80;2.50;;;2.20;99.90;;;;;;5093310;28;20450;-47
2022/11/24 01:05:20;;;;;;;2.37;2.17;;;2.20;99.90;;;;;;5093692;28;20869;-48
2022/11/24 01:07:47;;;;;;;4.27;2.83;;;2.20;99.90;;;;;;5093238;28;20472;-47
2022/11/24 01:10:14;;;;;;;4.23;3.50;;;2.30;99.90;;;;;;5092839;28;20810;-50
2022/11/24 01:12:41;;;;;;;4.40;3.07;;;2.10;99.90;;;;;;5093163;28;20440;-47
2022/11/24 01:15:08;;;;;;;4.20;3.50;;;1.90;99.90;;;;;;5092806;28;20884;-47
2022/11/24 01:17:37;;;;;;;6.40;4.20;;;2.10;99.90;;;;;;5093327;28;20487;-47
2022/11/24 01:20:04;;;;;;;4.70;3.80;;;2.20;99.90;;;;;;5093422;28;20444;-47
2022/11/24 01:22:31;;;;;;;4.30;3.80;;;2.30;99.90;;;;;;5092362;28;20847;-51
2022/11/24 01:24:58;;;;;;;4.40;3.33;;;2.20;99.90;;;;;;5092000;28;20448;-47
2022/11/24 01:27:25;;;;;;;2.87;2.10;;;2.30;99.90;;;;;;5092846;28;20996;-47
2022/11/24 01:29:52;;;;;;;4.30;3.00;;;2.10;99.90;;;;;;5092634;28;20988;-47
2022/11/24 01:32:19;;;;;;;4.37;2.60;;;2.20;99.90;;;;;;5092575;28;20468;-47
2022/11/24 01:34:47;;;;;;;3.47;2.93;;;2.30;99.90;;;;;;5092754;28;20522;-47
2022/11/24 01:37:14;;;;;;;6.90;3.20;;;2.40;99.90;;;;;;5092445;28;20435;-47
2022/11/24 01:39:40;;;;;;;3.40;2.60;;;2.40;99.90;;;;;;5092752;28;20440;-48
2022/11/24 01:42:08;;;;;;;3.90;3.03;;;2.30;99.90;;;;;;5092523;28;20456;-47
2022/11/24 01:44:34;;;;;;;4.50;4.00;;;2.40;99.90;;;;;;5092577;28;20444;-50
2022/11/24 01:47:06;;;;;;;4.50;4.10;;;2.30;99.90;;;;;;5092670;28;20446;-47
2022/11/24 01:49:39;;;;;;;4.23;3.60;;;2.20;99.90;;;;;;5092542;28;20442;-48
2022/11/24 01:52:12;;;;;;;2.67;2.30;;;2.10;99.90;;;;;;5092289;28;20458;-47
2022/11/24 01:54:43;;;;;;;3.63;2.50;;;2.30;99.90;;;;;;5092407;28;20432;-48
2022/11/24 01:57:15;;;;;;;3.30;2.47;;;2.30;99.90;;;;;;5092591;28;20523;-49
2022/11/24 01:59:42;;;;;;;1.90;1.77;;;2.40;99.90;;;;;;5092114;28;20436;-48
2022/11/24 02:02:10;;;;;;;2.20;1.87;;;2.40;99.90;;;;;;5092160;28;20892;-47
2022/11/24 02:04:38;;;;;;;2.50;2.20;;;2.30;99.90;;;;;;5091933;28;20442;-48
2022/11/24 02:07:08;;;;;;;2.27;1.80;;;2.40;99.90;;;;;;5092272;28;20432;-48
2022/11/24 02:09:41;;;;;;;2.43;2.13;;;2.30;99.90;;;;;;5091977;28;20941;-47
2022/11/24 02:12:07;;;;;;;3.57;3.00;;;2.40;99.90;;;;;;5092098;28;20494;-47
2022/11/24 02:14:36;;;;;;;5.30;3.17;;;2.40;99.90;;;;;;5091879;28;20440;-50
2022/11/24 02:17:03;;;;;;;3.80;2.97;;;2.20;99.90;;;;;;5091739;28;20992;-50
2022/11/24 02:19:41;;;;;;;4.63;2.93;;;1.90;99.90;;;;;;5092179;28;20519;-48
2022/11/24 02:22:16;;;;;;;4.63;2.67;;;2.00;99.90;;;;;;5091424;28;20458;-47
2022/11/24 02:24:49;;;;;;;3.30;3.00;;;2.30;99.90;;;;;;5091608;28;20443;-48
2022/11/24 02:27:19;;;;;;;3.60;2.60;;;2.40;99.90;;;;;;5091950;28;20534;-48
2022/11/24 02:29:46;;;;;;;3.00;1.90;;;2.40;99.90;;;;;;5091881;28;20444;-47
2022/11/24 02:32:14;;;;;;;2.50;2.30;;;2.50;99.90;;;;;;5093043;28;20468;-47
2022/11/24 02:34:40;;;;;;;1.67;1.37;;;2.40;99.90;;;;;;5091449;28;20446;-47
2022/11/24 02:37:08;;;;;;;2.00;1.50;;;2.30;99.90;;;;;;5090785;28;20447;-48
2022/11/24 02:39:34;;;;;;;4.07;2.10;;;2.30;99.90;;;;;;5091484;28;20436;-48
2022/11/24 02:42:04;;;;;;;3.10;2.50;;;2.40;99.90;;;;;;5091316;28;20978;-47
2022/11/24 02:44:38;;;;;;;2.80;1.97;;;2.30;99.90;;;;;;5091285;28;20540;-47
2022/11/24 02:47:07;;;;;;;2.43;2.17;;;2.30;99.90;;;;;;5091581;28;20531;-48
2022/11/24 02:49:34;;;;;;;3.30;3.00;;;2.30;99.90;;;;;;5091423;28;20858;-47
2022/11/24 02:52:01;;;;;;;4.57;3.57;;;2.40;99.90;;;;;;5091001;28;20459;-49
2022/11/24 02:54:28;;;;;;;3.27;2.97;;;2.40;99.90;;;;;;5091521;28;20440;-48
2022/11/24 02:56:56;;;;;;;6.43;2.63;;;2.10;99.90;;;;;;5091321;28;20523;-50
2022/11/24 02:59:23;;;;;;;1.97;1.87;;;1.90;99.90;;;;;;5091634;28;20444;-47
2022/11/24 03:01:51;;;;;;;2.17;1.97;;;2.10;99.90;;;;;;5091360;28;20822;-48
2022/11/24 03:04:18;;;;;;;1.90;1.40;;;2.00;99.90;;;;;;5091142;28;20470;-48
2022/11/24 03:06:44;;;;;;;1.03;0.87;;;2.00;99.90;;;;;;5091116;28;20446;-48
2022/11/24 03:09:11;;;;;;;1.33;1.23;;;2.20;99.90;;;;;;5091337;28;20472;-47
2022/11/24 03:11:39;;;;;;;1.47;0.83;;;2.20;99.90;;;;;;5091448;28;20451;-49
2022/11/24 03:14:06;;;;;;;1.80;1.03;;;2.30;99.90;;;;;;5091215;28;20443;-47
2022/11/24 03:16:33;;;;;;;2.67;2.47;;;2.30;99.90;;;;;;5091694;28;20874;-47
2022/11/24 03:19:01;;;;;;;3.00;2.53;;;2.20;99.90;;;;;;5091140;28;20431;-47
2022/11/24 03:21:29;;;;;;;3.30;2.87;;;1.90;99.90;;;;;;5090949;28;20459;-47
2022/11/24 03:23:55;;;;;;;2.20;1.03;;;1.80;99.90;;;;;;5091227;28;20444;-47
2022/11/24 03:26:24;;;;;;;2.20;1.03;;;1.70;99.90;;;;;;5091152;28;20450;-47
2022/11/24 03:28:54;;;;;;;1.77;1.67;;;1.90;99.90;;;;;;5090876;28;20497;-47
2022/11/24 03:31:21;;;;;;;2.80;2.27;;;2.10;99.90;;;;;;5090815;28;20471;-47
2022/11/24 03:33:48;;;;;;;2.50;2.30;;;2.10;99.90;;;;;;5090997;28;20442;-47
2022/11/24 03:36:16;;;;;;;12.83;4.03;;;2.10;99.90;;;;;;5091175;28;20527;-47
2022/11/24 03:38:43;;;;;;;2.40;1.80;;;2.10;99.90;;;;;;5090980;28;20944;-46
2022/11/24 03:41:10;;;;;;;3.50;3.20;;;2.30;99.90;;;;;;5091033;28;20518;-50
2022/11/24 03:43:37;;;;;;;7.07;3.70;;;2.20;99.90;;;;;;5090657;28;20557;-47
2022/11/24 03:46:04;;;;;;;3.57;3.27;;;1.60;99.90;;;;;;5091113;28;20446;-47
2022/11/24 03:48:31;;;;;;;5.63;3.43;;;1.50;99.90;;;;;;5091489;28;21011;-47
2022/11/24 03:50:59;;;;;;;2.93;2.20;;;1.50;99.90;;;;;;5094686;28;20903;-48
2022/11/24 03:53:29;;;;;;;1.63;1.50;;;1.80;99.90;;;;;;5094619;28;20815;-47
2022/11/24 03:55:56;;;;;;;1.73;1.30;;;2.00;99.90;;;;;;5094788;28;20550;-48
2022/11/24 03:58:24;;;;;;;2.60;1.80;;;2.10;99.90;;;;;;5094523;28;21040;-48
2022/11/24 04:00:53;;;;;;;4.83;1.70;;;2.30;99.90;;;;;;5094386;28;21059;-47
2022/11/24 04:03:20;;;;;;;4.40;2.60;;;2.40;99.90;;;;;;5094538;28;20527;-48
2022/11/24 04:05:47;;;;;;;2.97;2.67;;;2.50;99.90;;;;;;5094480;28;20435;-47
2022/11/24 04:08:14;;;;;;;3.97;2.73;;;2.30;99.90;;;;;;5094439;28;20476;-47
2022/11/24 04:10:43;;;;;;;9.20;4.07;;;1.90;99.90;;;;;;5094356;28;20470;-48
2022/11/24 04:13:12;;;;;;;6.63;4.30;;;1.60;99.90;;;;;;5094207;28;20444;-47
2022/11/24 04:15:39;;;;;;;7.67;4.63;;;1.70;99.90;;;;;;5094420;28;20442;-47
2022/11/24 04:18:07;;;;;;;5.20;3.47;;;1.80;99.90;;;;;;5094210;28;20471;-49
2022/11/24 04:20:34;;;;;;;3.97;2.90;;;2.10;99.90;;;;;;5094054;28;20559;-47
2022/11/24 04:23:02;;;;;;;2.80;2.30;;;2.20;99.90;;;;;;5093722;28;20440;-47
2022/11/24 04:25:29;;;;;;;5.53;2.60;;;2.30;99.90;;;;;;5093981;28;20444;-50
2022/11/24 04:27:57;;;;;;;3.03;2.73;;;2.30;99.90;;;;;;5093990;28;20448;-49
2022/11/24 04:30:25;;;;;;;3.83;1.93;;;2.40;99.90;;;;;;5094008;28;20454;-49
2022/11/24 04:32:52;;;;;;;4.50;2.07;;;2.50;99.90;;;;;;5093701;28;20522;-44
2022/11/24 04:35:20;;;;;;;2.87;2.47;;;2.50;99.90;;;;;;5093802;28;20957;-47
2022/11/24 04:37:47;;;;;;;4.53;3.67;;;2.50;99.90;;;;;;5093905;28;20447;-47
2022/11/24 04:40:14;;;;;;;3.77;2.90;;;2.50;99.90;;;;;;5093916;28;20472;-49
2022/11/24 04:42:41;;;;;;;3.83;3.40;;;2.50;99.90;;;;;;5093913;28;20444;-47
2022/11/24 04:45:11;;;;;;;4.70;3.50;;;2.50;99.90;;;;;;5093759;28;20527;-48
2022/11/24 04:47:38;;;;;;;5.10;4.17;;;2.40;99.90;;;;;;5093677;28;20527;-47
2022/11/24 04:50:06;;;;;;;4.40;4.00;;;2.40;99.90;;;;;;5093873;28;20479;-47
2022/11/24 04:52:34;;;;;;;7.30;4.83;;;2.20;99.90;;;;;;5093665;28;20972;-48
2022/11/24 04:55:01;;;;;;;5.17;3.97;;;2.20;99.90;;;;;;5093347;28;20445;-50
2022/11/24 04:57:28;;;;;;;5.07;3.87;;;2.40;99.90;;;;;;5093604;28;20531;-48
2022/11/24 04:59:55;;;;;;;3.73;3.40;;;2.50;99.90;;;;;;5092596;28;20527;-47
2022/11/24 05:02:24;;;;;;;3.87;3.03;;;2.40;99.90;;;;;;5093416;28;20475;-47
2022/11/24 05:04:51;;;;;;;4.70;2.87;;;2.40;99.90;;;;;;5093101;28;20806;-48
2022/11/24 05:07:19;;;;;;;3.53;3.00;;;2.40;99.90;;;;;;5093470;28;20523;-48
2022/11/24 05:12:31;;;;;;;2.70;2.50;;;2.60;99.90;;;;;;5093084;28;20980;-47
2022/11/24 05:14:58;;;;;;;3.13;1.97;;;2.50;99.90;;;;;;5092996;28;20483;-47
2022/11/24 05:17:29;;;;;;;3.87;3.17;;;2.50;99.90;;;;;;5093614;28;20444;-48
2022/11/24 05:19:56;;;;;;;2.67;2.43;;;2.30;99.90;;;;;;5093233;28;20440;-50
2022/11/24 05:22:23;;;;;;;2.33;2.13;;;2.30;99.90;;;;;;5092436;28;20460;-47
2022/11/24 05:24:50;;;;;;;2.17;1.93;;;2.20;99.90;;;;;;5092543;28;20448;-47
2022/11/24 05:27:17;;;;;;;3.53;2.80;;;2.30;99.90;;;;;;5093118;28;20447;-48
2022/11/24 05:29:44;;;;;;;2.40;2.20;;;2.50;99.90;;;;;;5092807;28;20568;-47
2022/11/24 05:32:10;;;;;;;2.57;2.20;;;2.60;99.90;;;;;;5092758;28;20846;-47
2022/11/24 05:34:39;;;;;;;4.30;3.70;;;2.60;99.90;;;;;;5092307;28;20440;-47
2022/11/24 05:37:07;;;;;;;4.33;3.93;;;2.40;99.90;;;;;;5092639;28;20435;-47
2022/11/24 05:39:34;;;;;;;3.17;2.87;;;2.40;99.90;;;;;;5092682;28;20525;-48
2022/11/24 05:42:39;;;;;;;4.20;3.70;;;2.50;99.90;;;;;;5092689;28;20496;-47
2022/11/24 05:44:50;;;;;;;5.00;3.83;;;2.40;99.90;;;;;;5091940;28;20865;-49
2022/11/24 05:47:17;;;;;;;3.93;3.50;;;2.50;99.90;;;;;;5092287;28;20442;-47
2022/11/24 05:49:46;;;;;;;10.87;9.87;;;2.40;99.90;;;;;;5092601;28;20472;-48
2022/11/24 05:52:12;;;;;;;9.10;7.27;;;2.40;99.90;;;;;;5092346;28;20463;-48
2022/11/24 05:54:39;;;;;;;5.70;5.30;;;2.40;99.90;;;;;;5092372;28;20882;-48
2022/11/24 05:57:06;;;;;;;11.43;10.33;;;2.40;99.90;;;;;;5092416;28;20449;-47
2022/11/24 05:59:33;;;;;;;4.30;3.10;;;2.40;99.90;;;;;;5092484;28;20440;-48
2022/11/24 06:02:00;;;;;;;2.53;2.30;;;2.30;99.90;;;;;;5092109;28;20534;-47
2022/11/24 06:04:27;;;;;;;3.70;1.80;;;2.20;99.90;;;;;;5092130;28;20531;-50
2022/11/24 06:06:55;;;;;;;3.57;3.27;;;2.10;99.90;;;;;;5092516;28;20470;-47
2022/11/24 06:09:22;;;;;;;6.17;3.67;;;2.20;99.90;;;;;;5092262;28;20471;-47
2022/11/24 06:11:49;;;;;;;4.57;3.70;;;2.30;99.90;;;;;;5091846;28;20459;-47
2022/11/24 06:14:16;;;;;;;4.97;4.00;;;2.20;99.90;;;;;;5091850;28;20441;-48
2022/11/24 06:16:42;;;;;;;4.30;3.90;;;2.20;99.90;;;;;;5091878;28;20941;-47
2022/11/24 06:19:10;;;;;;;4.73;3.70;;;2.20;99.90;;;;;;5092005;28;20436;-47
2022/11/24 06:21:37;;;;;;;4.07;3.40;;;2.20;99.90;;;;;;5091938;28;20460;-47
2022/11/24 06:24:06;;;;;;;2.50;2.30;;;2.30;99.90;;;;;;5091592;28;20506;-47
2022/11/24 06:26:32;;;;;;;1.80;1.60;;;2.30;99.90;;;;;;5091931;28;20501;-48
2022/11/24 06:29:00;;;;;;;5.60;3.90;;;2.30;99.90;;;;;;5091575;28;20468;-47
2022/11/24 06:31:27;;;;;;;9.27;7.00;;;2.30;99.90;;;;;;5091807;28;20507;-50
2022/11/24 06:33:53;;;;;;;8.43;7.53;;;2.20;99.90;;;;;;5091818;28;20527;-47
2022/11/24 06:36:20;;;;;;;11.00;7.80;;;2.10;99.90;;;;;;5091736;28;20443;-47
2022/11/24 06:38:47;;;;;;;7.07;6.30;;;2.00;99.90;;;;;;5091891;28;20548;-48
2022/11/24 06:41:17;;;;;;;10.80;8.40;;;2.10;99.90;;;;;;5091786;28;20455;-47
2022/11/24 06:43:44;;;;;;;10.57;7.30;;;2.10;99.90;;;;;;5091246;28;20511;-47
2022/11/24 06:46:12;;;;;;;6.50;5.20;;;2.20;99.90;;;;;;5091836;28;20535;-47
2022/11/24 06:48:39;;;;;;;11.60;7.87;;;2.20;99.90;;;;;;5091524;28;20440;-47
2022/11/24 06:51:08;;;;;;;9.53;6.70;;;2.20;99.90;;;;;;5091475;28;20811;-49
2022/11/24 06:53:37;;;;;;;5.37;3.90;;;2.20;99.90;;;;;;5091089;28;20531;-47
2022/11/24 06:56:05;;;;;;;5.50;5.10;;;2.30;99.90;;;;;;5091829;28;20917;-47
2022/11/24 06:58:34;;;;;;;4.03;3.73;;;2.30;99.90;;;;;;5091525;28;20441;-47
2022/11/24 07:01:01;;;;;;;2.73;2.50;;;2.20;99.90;;;;;;5091672;28;20466;-49
2022/11/24 07:03:27;;;;;;;7.07;5.73;;;2.00;99.90;;;;;;5091466;28;20526;-47
2022/11/24 07:05:57;;;;;;;4.37;3.40;;;2.10;99.90;;;;;;5091254;28;20437;-47
2022/11/24 07:08:24;;;;;;;3.27;2.70;;;2.10;99.90;;;;;;5091362;28;20450;-47
2022/11/24 07:10:51;;;;;;;15.83;11.27;;;2.00;99.90;;;;;;5091265;28;20479;-47
2022/11/24 07:13:19;;;;;;;8.37;7.00;;;1.90;99.90;;;;;;5091239;28;20440;-48
2022/11/24 07:15:47;;;;;;;10.07;6.93;;;2.10;99.90;;;;;;5091229;28;20527;-49
2022/11/24 07:18:14;;;;;;;8.73;5.13;;;2.20;99.90;;;;;;5090983;28;20951;-47
2022/11/24 07:20:41;;;;;;;4.53;2.37;;;2.20;99.90;;;;;;5090868;28;20452;-46
2022/11/24 07:23:08;;;;;;;2.33;2.13;;;2.40;99.90;;;;;;5091184;28;20461;-50
2022/11/24 07:25:35;;;;;;;5.10;3.50;;;2.50;99.90;;;;;;5095632;28;20458;-47
2022/11/24 07:28:02;;;;;;;4.80;4.20;;;2.50;99.90;;;;;;5095212;28;20450;-47
2022/11/24 07:30:29;;;;;;;14.53;11.20;;;2.50;99.90;;;;;;5094770;28;20479;-48
2022/11/24 07:33:00;;;;;;;18.07;9.83;;;2.60;99.90;;;;;;5094997;28;20442;-49
2022/11/24 07:35:29;;;;;;;7.90;5.57;;;2.50;99.90;;;;;;5095167;28;20448;-47
2022/11/24 07:37:56;;;;;;;5.93;4.53;;;2.60;99.90;;;;;;5094899;28;20527;-47
2022/11/24 07:40:23;;;;;;;16.43;11.00;;;2.50;99.90;;;;;;5095055;28;20436;-50
2022/11/24 07:42:50;;;;;;;15.57;10.30;;;2.50;99.90;;;;;;5094853;28;20444;-47
2022/11/24 07:45:17;;;;;;;28.17;18.57;;;2.60;99.90;;;;;;5095279;28;20451;-47
2022/11/24 07:47:44;;;;;;;28.93;14.93;;;2.60;99.90;;;;;;5094622;28;20552;-50
2022/11/24 07:50:12;;;;;;;16.27;12.37;;;2.70;99.90;;;;;;5094920;28;20562;-48
2022/11/24 07:52:39;;;;;;;13.97;9.10;;;2.80;99.90;;;;;;5094894;28;20442;-47
2022/11/24 07:55:07;;;;;;;9.73;7.70;;;2.80;99.90;;;;;;5094472;28;20446;-49
2022/11/24 07:57:34;;;;;;;3.40;2.53;;;2.80;99.90;;;;;;5094559;28;20440;-50
2022/11/24 08:00:01;;;;;;;4.97;4.30;;;2.80;99.90;;;;;;5094511;28;20475;-49
2022/11/24 08:02:28;;;;;;;7.47;6.53;;;2.80;99.90;;;;;;5094212;28;20888;-48
2022/11/24 08:04:55;;;;;;;6.90;6.23;;;2.80;99.90;;;;;;5094376;28;20446;-48
2022/11/24 08:07:23;;;;;;;9.10;7.50;;;2.80;99.90;;;;;;5094731;28;20532;-48
2022/11/24 08:09:51;;;;;;;10.83;8.43;;;2.70;99.90;;;;;;5094511;28;20514;-47
2022/11/24 08:12:20;;;;;;;16.73;14.60;;;2.70;99.90;;;;;;5094340;28;20463;-47
2022/11/24 08:14:48;;;;;;;16.90;14.57;;;2.60;99.90;;;;;;5093972;28;20542;-47
2022/11/24 08:17:14;;;;;;;10.53;7.87;;;2.60;99.90;;;;;;5094598;28;20452;-47
2022/11/24 08:19:41;;;;;;;8.63;6.80;;;2.60;99.90;;;;;;5094358;28;20530;-47
2022/11/24 08:22:08;;;;;;;11.23;7.77;;;2.60;99.90;;;;;;5093827;28;20995;-47
2022/11/24 08:24:37;;;;;;;14.33;11.47;;;2.60;99.90;;;;;;5093798;28;20522;-47
2022/11/24 08:27:04;;;;;;;20.53;13.97;;;2.50;99.90;;;;;;5094118;28;20828;-47
2022/11/24 08:29:31;;;;;;;24.43;18.70;;;2.50;99.90;;;;;;5094125;28;20472;-48
2022/11/24 08:31:58;;;;;;;13.70;8.93;;;2.50;99.90;;;;;;5095067;28;20551;-47
2022/11/24 08:34:25;;;;;;;6.90;4.43;;;2.50;99.90;;;;;;5093410;28;20444;-50
2022/11/24 08:36:52;;;;;;;6.53;5.43;;;2.60;99.90;;;;;;5093058;28;20580;-47
2022/11/24 08:39:19;;;;;;;14.23;8.90;;;2.60;99.90;;;;;;5093543;28;20440;-47
2022/11/24 08:41:47;;;;;;;14.20;8.97;;;2.60;99.90;;;;;;5093718;28;20547;-47
2022/11/24 08:44:17;;;;;;;14.47;8.87;;;2.50;99.90;;;;;;5093493;28;20472;-47
2022/11/24 08:46:43;;;;;;;13.47;9.57;;;2.50;99.90;;;;;;5093841;28;20498;-49
2022/11/24 08:49:12;;;;;;;22.20;12.27;;;2.60;99.90;;;;;;5093452;28;20446;-47
2022/11/24 08:51:39;;;;;;;4.83;3.83;;;2.60;99.90;;;;;;5093572;28;20468;-47
2022/11/24 08:54:06;;;;;;;8.10;7.30;;;2.60;99.90;;;;;;5093390;28;20444;-49
2022/11/24 08:56:33;;;;;;;10.40;9.33;;;2.60;99.90;;;;;;5093713;28;20511;-47
2022/11/24 08:59:02;;;;;;;9.73;8.90;;;2.70;99.90;;;;;;5093405;28;20440;-49
2022/11/24 09:01:29;;;;;;;22.77;20.47;;;2.70;99.90;;;;;;5093163;28;20965;-47
2022/11/24 09:03:56;;;;;;;11.17;9.37;;;2.90;99.90;;;;;;5093638;28;20550;-46
2022/11/24 09:06:25;;;;;;;10.57;9.50;;;3.00;99.90;;;;;;5093204;28;20524;-48
2022/11/24 09:08:54;;;;;;;23.23;18.80;;;2.90;99.90;;;;;;5093049;28;20443;-47
2022/11/24 09:11:21;;;;;;;16.07;12.87;;;2.80;99.90;;;;;;5093142;28;20640;-50
2022/11/24 09:13:48;;;;;;;10.23;9.23;;;2.80;99.90;;;;;;5092796;28;20452;-47
2022/11/24 09:16:18;;;;;;;12.50;10.37;;;2.80;99.90;;;;;;5093067;28;20440;-47
2022/11/24 09:18:45;;;;;;;16.93;11.40;;;2.70;99.90;;;;;;5093028;28;20518;-47
2022/11/24 09:21:15;;;;;;;13.90;11.90;;;2.60;99.90;;;;;;5092783;28;20479;-47
2022/11/24 09:23:42;;;;;;;15.83;12.23;;;2.30;99.90;;;;;;5092975;28;20532;-49
2022/11/24 09:26:11;;;;;;;15.77;14.17;;;2.40;99.90;;;;;;5093022;28;20534;-49
2022/11/24 09:28:38;;;;;;;10.40;8.87;;;2.60;99.90;;;;;;5092885;28;20435;-47
2022/11/24 09:31:08;;;;;;;6.57;5.03;;;2.70;99.90;;;;;;5092263;28;20677;-47
2022/11/24 09:33:36;;;;;;;12.57;10.00;;;2.80;99.90;;;;;;5092620;28;20535;-49
2022/11/24 09:36:04;;;;;;;12.77;9.07;;;2.80;99.90;;;;;;5092736;28;20440;-47
2022/11/24 09:38:31;;;;;;;9.10;7.70;;;2.50;99.90;;;;;;5092974;28;20531;-49
2022/11/24 09:41:20;;;;;;;8.97;8.07;;;2.30;99.90;;;;;;5092662;28;20456;-49
2022/11/24 09:43:55;;;;;;;11.57;7.97;;;2.40;99.90;;;;;;5092372;28;20450;-50
2022/11/24 09:46:30;;;;;;;16.73;9.20;;;2.50;99.90;;;;;;5092735;28;20482;-47
2022/11/24 09:49:00;;;;;;;9.47;6.23;;;2.60;99.90;;;;;;5092669;28;20530;-48
2022/11/24 09:51:31;;;;;;;9.20;7.20;;;2.60;99.90;;;;;;5092507;28;20559;-48
2022/11/24 09:54:05;;;;;;;5.93;4.50;;;2.50;99.90;;;;;;5092134;28;21003;-47
2022/11/24 09:56:34;;;;;;;38.27;19.10;;;2.60;99.90;;;;;;5092456;28;20534;-47
2022/11/24 09:59:05;;;;;;;16.27;12.93;;;2.80;99.90;;;;;;5092483;28;20531;-48
2022/11/24 10:01:35;;;;;;;10.50;9.10;;;3.00;99.90;;;;;;5092133;28;20546;-47
2022/11/24 10:04:10;;;;;;;12.83;10.53;;;3.10;99.90;;;;;;5091925;28;20447;-48
2022/11/24 10:06:44;;;;;;;8.83;7.93;;;3.20;99.90;;;;;;5091911;28;20539;-48
2022/11/24 10:09:20;;;;;;;11.57;8.40;;;3.20;99.90;;;;;;5092048;28;20442;-48
2022/11/24 10:11:58;;;;;;;5.37;4.87;;;3.20;99.90;;;;;;5091744;28;20476;-47
2022/11/24 10:14:41;;;;;;;4.90;4.37;;;3.20;99.90;;;;;;5091616;28;20445;-48
2022/11/24 10:17:18;;;;;;;5.37;3.80;;;3.30;99.90;;;;;;5091977;28;20450;-47
2022/11/24 10:19:52;;;;;;;5.30;4.73;;;3.40;99.90;;;;;;5092080;28;20539;-50
2022/11/24 10:22:30;;;;;;;4.27;3.60;;;3.50;99.90;;;;;;5091641;28;20547;-47
2022/11/24 10:25:08;;;;;;;4.37;3.97;;;3.70;99.90;;;;;;5091374;28;20532;-47
2022/11/24 10:27:37;;;;;;;4.70;3.33;;;3.70;99.90;;;;;;5091859;28;20542;-47
2022/11/24 10:30:14;;;;;;;6.70;4.70;;;3.80;99.90;;;;;;5091669;28;20984;-48
2022/11/24 10:32:45;;;;;;;8.50;6.40;;;3.80;99.90;;;;;;5091812;28;20451;-47
2022/11/24 10:35:18;;;;;;;7.10;5.50;;;3.80;99.90;;;;;;5091536;28;20902;-47
2022/11/24 10:37:57;;;;;;;10.43;6.60;;;3.90;99.90;;;;;;5091672;28;20805;-48
2022/11/24 10:40:33;;;;;;;9.30;6.90;;;3.90;99.90;;;;;;5091705;28;20824;-47
2022/11/24 10:43:00;;;;;;;7.80;6.23;;;4.00;99.90;;;;;;5091639;28;20430;-47
2022/11/24 10:45:29;;;;;;;5.53;4.90;;;4.00;99.90;;;;;;5091500;28;20630;-47
2022/11/24 10:47:57;;;;;;;5.70;4.37;;;4.10;99.90;;;;;;5090559;28;20445;-47
2022/11/24 10:50:28;;;;;;;5.63;5.03;;;4.10;99.90;;;;;;5091170;28;20481;-48
2022/11/24 10:53:02;;;;;;;7.07;4.77;;;4.00;99.90;;;;;;5091409;28;20532;-47
2022/11/24 10:56:01;;;;;;;8.67;7.43;;;3.90;99.90;;;;;;5091424;28;20988;-47
2022/11/24 10:58:29;;;;;;;6.53;5.77;;;4.00;99.90;;;;;;5090541;28;20500;-48
2022/11/24 11:00:59;;;;;;;6.10;4.70;;;4.00;99.90;;;;;;5091119;28;20462;-48
2022/11/24 11:03:27;;;;;;;5.63;4.50;;;4.00;99.90;;;;;;5091318;28;20513;-48
2022/11/24 11:06:00;;;;;;;6.37;5.07;;;4.10;99.90;;;;;;5091390;28;21013;-50
2022/11/24 11:08:28;;;;;;;11.03;9.50;;;4.10;99.90;;;;;;5091471;28;20491;-48
2022/11/24 11:11:17;;;;;;;9.00;8.20;;;4.10;99.90;;;;;;5090827;28;20975;-47
2022/11/24 11:13:54;;;;;;;8.10;7.30;;;4.20;99.90;;;;;;5091023;28;20528;-49
2022/11/24 11:16:26;;;;;;;7.80;6.50;;;4.00;99.90;;;;;;5090629;28;20450;-50
2022/11/24 11:18:53;;;;;;;6.30;5.70;;;4.00;99.90;;;;;;5091019;28;20945;-49
2022/11/24 11:21:32;;;;;;;6.03;5.53;;;4.10;99.90;;;;;;5091537;28;20463;-48
2022/11/24 11:24:01;;;;;;;5.47;3.80;;;4.10;99.90;;;;;;5091080;28;20797;-47
2022/11/24 11:26:38;;;;;;;3.53;3.03;;;4.20;99.90;;;;;;5090600;28;20436;-47
2022/11/24 11:29:15;;;;;;;3.60;2.60;;;4.30;99.90;;;;;;5091209;28;20444;-48
2022/11/24 11:31:55;;;;;;;3.37;2.87;;;4.20;99.90;;;;;;5090833;28;21071;-47
2022/11/24 11:34:22;;;;;;;5.10;3.60;;;4.20;99.90;;;;;;5089965;28;20536;-49
2022/11/24 11:36:53;;;;;;;4.70;3.57;;;4.30;99.90;;;;;;5090429;28;20452;-46
2022/11/24 11:39:28;;;;;;;5.23;3.70;;;4.40;99.90;;;;;;5090806;28;20480;-47
2022/11/24 11:42:06;;;;;;;2.93;2.60;;;4.40;99.90;;;;;;5089504;28;20544;-47
2022/11/24 11:44:38;;;;;;;3.77;3.40;;;4.40;99.90;;;;;;5090778;28;20441;-49
2022/11/24 11:47:16;;;;;;;3.70;3.17;;;4.40;99.90;;;;;;5090703;28;21009;-48
2022/11/24 11:49:44;;;;;;;5.37;4.47;;;4.50;99.90;;;;;;5091044;28;20480;-48
2022/11/24 11:52:57;;;;;;;7.57;5.07;;;4.50;99.90;;;;;;5090652;28;20986;-49
2022/11/24 11:55:46;;;;;;;6.60;5.17;;;4.60;99.90;;;;;;5091207;28;20438;-47
2022/11/24 11:58:34;;;;;;;4.03;3.20;;;4.50;99.90;;;;;;5091035;28;20432;-49
2022/11/24 12:01:12;;;;;;;16.20;12.43;;;4.50;99.90;;;;;;5090926;28;20538;-50
2022/11/24 12:03:58;;;;;;;15.33;14.13;;;4.50;99.90;;;;;;5090827;28;20446;-47
2022/11/24 12:06:42;;;;;;;3.60;3.30;;;4.40;99.90;;;;;;5090912;28;20448;-47
2022/11/24 12:09:23;;;;;;;3.77;3.47;;;4.30;99.90;;;;;;5090877;28;20523;-48
2022/11/24 12:12:05;;;;;;;6.47;5.90;;;4.30;99.90;;;;;;5094499;28;20568;-47
2022/11/24 12:14:42;;;;;;;4.20;3.73;;;4.30;99.90;;;;;;5093697;28;20441;-47
2022/11/24 12:17:29;;;;;;;3.50;3.20;;;4.70;99.90;;;;;;5092882;28;20437;-48
2022/11/24 12:20:23;;;;;;;3.83;3.40;;;4.60;99.90;;;;;;5092852;28;20526;-47
2022/11/24 12:23:01;;;;;;;3.30;2.90;;;4.50;99.90;;;;;;5093318;28;20876;-53
2022/11/24 12:25:34;;;;;;;4.17;3.77;;;4.70;99.90;;;;;;5092985;28;21046;-47
2022/11/24 12:28:16;;;;;;;5.20;4.20;;;4.70;99.90;;;;;;5092793;28;20442;-50
2022/11/24 12:30:49;;;;;;;6.30;5.70;;;4.60;99.90;;;;;;5093537;28;21085;-47
2022/11/24 12:33:40;;;;;;;419.40;100.73;;;4.60;99.90;;;;;;5093935;28;20515;-47
2022/11/24 12:36:20;;;;;;;12.20;9.80;;;6.20;99.90;;;;;;5093979;28;20448;-48
2022/11/24 12:38:58;;;;;;;6.53;5.63;;;5.50;99.90;;;;;;5093973;28;20529;-48
2022/11/24 12:41:38;;;;;;;7.63;5.13;;;5.40;99.90;;;;;;5093873;28;20973;-48
2022/11/24 12:44:15;;;;;;;7.23;4.63;;;6.00;99.90;;;;;;5093445;28;20530;-49
2022/11/24 12:46:53;;;;;;;5.30;4.07;;;5.80;99.90;;;;;;5093514;28;20457;-47
2022/11/24 12:49:27;;;;;;;5.50;3.83;;;5.50;99.90;;;;;;5093800;28;20472;-48
2022/11/24 12:52:01;;;;;;;3.90;2.90;;;5.80;99.90;;;;;;5093639;28;21011;-49
2022/11/24 12:54:36;;;;;;;4.67;4.00;;;5.60;99.90;;;;;;5092648;28;20524;-47
2022/11/24 12:57:10;;;;;;;4.63;3.93;;;6.20;99.90;;;;;;5093380;28;20529;-48
2022/11/24 12:59:44;;;;;;;4.30;3.90;;;6.70;99.90;;;;;;5093438;28;20437;-50
2022/11/24 13:02:23;;;;;;;5.27;4.80;;;6.90;99.90;;;;;;5093268;28;20454;-47
2022/11/24 13:04:55;;;;;;;4.23;3.70;;;7.10;99.90;;;;;;5093168;28;20442;-47
2022/11/24 13:07:36;;;;;;;5.13;4.47;;;7.30;99.90;;;;;;5093308;28;20523;-50
2022/11/24 13:10:43;;;;;;;5.00;4.20;;;7.40;99.90;;;;;;5093542;28;20453;-47
2022/11/24 13:13:13;;;;;;;6.97;4.40;;;7.50;99.90;;;;;;5087933;28;20769;-47